Time;durP1;ratioP1;P1;durP2;ratioP2;P2;SDS_P1;SDS_P2;PMS_P1;PMS_P2;Temp;Humidity;BMP_temperature;BMP_pressure;BME280_temperature;BME280_humidity;BME280_pressure;Samples;Min_cycle;Max_cycle;Signal;HPM_P1;HPM_P2
2022/04/14 00:00:37;;;;;;;4.40;4.00;;;;;;;21.11;25.99;95414.53;6162154;28;103456;-61
2022/04/14 00:03:40;;;;;;;4.50;4.00;;;;;;;21.10;26.01;95410.28;6167138;28;103009;-61
2022/04/14 00:06:42;;;;;;;5.23;4.70;;;;;;;21.08;25.93;95401.81;6163542;28;102998;-61
2022/04/14 00:09:44;;;;;;;4.07;3.77;;;;;;;21.08;25.82;95405.25;6167382;28;104350;-61
2022/04/14 00:12:48;;;;;;;4.50;4.10;;;;;;;21.08;25.90;95404.47;6159082;28;103893;-61
2022/04/14 00:15:50;;;;;;;5.07;4.37;;;;;;;21.07;26.03;95408.22;6162039;28;104168;-61
2022/04/14 00:18:53;;;;;;;4.40;4.00;;;;;;;21.08;26.21;95401.81;6162917;28;102700;-60
2022/04/14 00:21:54;;;;;;;4.40;4.00;;;;;;;21.06;25.89;95404.75;6166181;28;104111;-56
2022/04/14 00:24:56;;;;;;;4.80;4.40;;;;;;;21.05;26.10;95386.41;6154694;28;104138;-57
2022/04/14 00:27:58;;;;;;;4.80;4.40;;;;;;;21.03;25.95;95392.00;6163577;28;103173;-61
2022/04/14 00:30:59;;;;;;;4.90;4.40;;;;;;;20.98;25.96;95386.75;6172126;28;104375;-62
2022/04/14 00:34:01;;;;;;;5.37;4.87;;;;;;;21.02;25.88;95394.97;6153456;28;103195;-58
2022/04/14 00:37:03;;;;;;;5.17;4.77;;;;;;;21.02;25.85;95400.28;6159817;28;102881;-61
2022/04/14 00:40:06;;;;;;;5.33;4.83;;;;;;;21.02;26.05;95401.06;6173036;28;103933;-62
2022/04/14 00:43:08;;;;;;;4.90;4.50;;;;;;;20.97;25.80;95397.69;6186851;28;102863;-61
2022/04/14 00:46:09;;;;;;;4.53;4.13;;;;;;;20.98;25.85;95393.94;6173952;28;104313;-61
2022/04/14 00:49:12;;;;;;;5.73;5.23;;;;;;;;;;6163024;28;102710;-61
2022/04/14 00:52:16;;;;;;;4.87;4.37;;;;;;;20.96;25.98;95399.53;6162046;28;102742;-60
2022/04/14 00:55:17;;;;;;;4.60;4.20;;;;;;;20.91;25.75;95404.94;6162500;28;104195;-61
2022/04/14 00:58:19;;;;;;;4.87;4.47;;;;;;;20.90;25.86;95403.38;6176912;28;104898;-61
2022/04/14 01:01:21;;;;;;;5.10;4.67;;;;;;;20.96;25.90;95407.53;6185983;28;103273;-61
2022/04/14 01:04:24;;;;;;;5.47;4.97;;;;;;;20.93;25.89;95406.25;6186713;28;102780;-61
2022/04/14 01:07:28;;;;;;;4.77;4.37;;;;;;;20.96;25.72;95410.19;6164535;28;103770;-57
2022/04/14 01:10:30;;;;;;;5.13;4.73;;;;;;;20.94;25.70;95415.00;6161414;28;103113;-60
2022/04/14 01:13:32;;;;;;;5.40;4.90;;;;;;;20.93;25.86;95416.88;6161736;28;103884;-61
2022/04/14 01:16:34;;;;;;;5.37;4.97;;;;;;;20.91;25.57;95413.72;6159052;28;103230;-57
2022/04/14 01:19:38;;;;;;;4.73;4.33;;;;;;;20.89;25.84;95418.53;6152308;28;104239;-57
2022/04/14 01:22:54;;;;;;;4.83;4.43;;;;;;;20.89;25.84;95423.06;6162224;28;103622;-62
2022/04/14 01:25:55;;;;;;;4.77;4.37;;;;;;;20.86;25.79;95426.31;6161867;28;103361;-61
2022/04/14 01:28:57;;;;;;;4.37;3.97;;;;;;;20.85;25.79;95428.19;6161789;28;104114;-61
2022/04/14 01:32:03;;;;;;;7.80;4.70;;;;;;;20.84;25.62;95434.59;6151284;28;103911;-61
2022/04/14 01:35:06;;;;;;;5.60;5.10;;;;;;;20.83;25.80;95424.22;6162272;28;103436;-62
2022/04/14 01:38:07;;;;;;;4.90;4.50;;;;;;;20.78;25.71;95430.41;6161378;28;103251;-62
2022/04/14 01:41:09;;;;;;;5.43;5.03;;;;;;;20.77;25.83;95439.47;6179696;28;102945;-61
2022/04/14 01:44:11;;;;;;;6.00;5.27;;;;;;;20.77;25.86;95434.13;6144983;28;104341;-62
2022/04/14 01:47:13;;;;;;;6.27;4.73;;;;;;;20.77;25.68;95426.16;6152579;28;104059;-62
2022/04/14 01:50:15;;;;;;;6.00;5.40;;;;;;;20.76;25.84;95423.78;6164476;28;103618;-60
2022/04/14 01:53:17;;;;;;;6.70;5.73;;;;;;;20.74;25.98;95424.06;6164417;28;103944;-61
2022/04/14 01:56:18;;;;;;;6.37;5.77;;;;;;;20.75;25.98;95428.31;6158892;28;103126;-62
2022/04/14 01:59:20;;;;;;;6.00;5.50;;;;;;;20.75;25.79;95430.19;6166500;28;103411;-61
2022/04/14 02:02:22;;;;;;;5.50;5.00;;;;;;;20.75;25.93;95438.97;6166919;28;103154;-62
2022/04/14 02:05:24;;;;;;;5.50;4.97;;;;;;;20.71;25.84;95427.31;6154577;28;103978;-61
2022/04/14 02:08:26;;;;;;;6.20;4.90;;;;;;;20.73;25.93;95440.31;6190561;28;103150;-62
2022/04/14 02:11:27;;;;;;;6.03;5.07;;;;;;;20.71;25.85;95435.28;6182776;28;104503;-62
2022/04/14 02:14:29;;;;;;;5.63;5.13;;;;;;;20.71;25.90;95435.28;6184573;28;104321;-61
2022/04/14 02:17:31;;;;;;;5.87;5.23;;;;;;;20.70;25.82;95436.38;6138187;28;103997;-61
2022/04/14 02:20:33;;;;;;;5.53;4.93;;;;;;;20.67;25.67;95431.63;6156287;28;103289;-61
2022/04/14 02:23:35;;;;;;;6.03;4.60;;;;;;;20.69;25.75;95436.66;6187983;28;103318;-61
2022/04/14 02:26:37;;;;;;;5.67;5.13;;;;;;;20.68;25.84;95425.25;6187169;28;103542;-61
2022/04/14 02:29:40;;;;;;;5.93;5.40;;;;;;;20.67;25.99;95428.97;6155047;28;104342;-61
2022/04/14 02:32:43;;;;;;;6.00;5.40;;;;;;;20.66;25.84;95422.03;6157330;28;103743;-60
2022/04/14 02:35:45;;;;;;;5.97;5.13;;;;;;;20.65;25.81;95423.13;6164861;28;104258;-61
2022/04/14 02:38:47;;;;;;;6.30;5.70;;;;;;;20.63;26.07;95425.28;6160727;28;103945;-60
2022/04/14 02:41:49;;;;;;;6.03;5.53;;;;;;;20.62;26.06;95421.03;6160866;28;104004;-59
2022/04/14 02:44:51;;;;;;;5.40;4.90;;;;;;;20.63;26.11;95425.28;6165726;28;103744;-61
2022/04/14 02:47:54;;;;;;;7.60;5.30;;;;;;;20.59;26.07;95425.06;6164569;28;103105;-60
2022/04/14 02:50:56;;;;;;;8.30;5.90;;;;;;;20.57;26.03;95421.91;6157362;28;102977;-61
2022/04/14 02:53:57;;;;;;;6.17;5.40;;;;;;;20.58;26.07;95426.16;6187867;28;103821;-61
2022/04/14 02:56:59;;;;;;;5.60;5.10;;;;;;;20.56;25.94;95430.97;6164717;28;102748;-61
2022/04/14 03:00:03;;;;;;;5.97;5.47;;;;;;;20.58;25.88;95433.34;6164837;28;104354;-61
2022/04/14 03:03:05;;;;;;;5.77;5.27;;;;;;;20.56;25.86;95428.31;6155422;28;103347;-61
2022/04/14 03:06:07;;;;;;;5.50;5.00;;;;;;;20.54;26.10;95421.69;6165336;28;102907;-61
2022/04/14 03:09:09;;;;;;;7.87;5.80;;;;;;;20.47;26.01;95426.56;6165011;28;103155;-61
2022/04/14 03:12:11;;;;;;;6.70;5.00;;;;;;;20.46;25.94;95425.78;6184064;28;104686;-61
2022/04/14 03:15:14;;;;;;;6.07;5.57;;;;;;;20.47;25.81;95426.56;6158041;28;104486;-62
2022/04/14 03:18:16;;;;;;;6.53;6.03;;;;;;;20.46;25.77;95435.59;6179657;28;104049;-61
2022/04/14 03:21:18;;;;;;;9.57;6.10;;;;;;;20.37;26.13;95443.44;6175515;28;102990;-59
2022/04/14 03:24:19;;;;;;;7.67;6.90;;;;;;;20.25;26.00;95443.84;6158693;28;103844;-57
2022/04/14 03:27:21;;;;;;;7.63;7.00;;;;;;;20.17;25.74;95439.13;6167987;28;103151;-59
2022/04/14 03:30:23;;;;;;;8.43;7.50;;;;;;;20.13;26.08;95450.59;6165611;28;104233;-60
2022/04/14 03:33:25;;;;;;;10.00;8.10;;;;;;;20.07;25.95;95452.50;6165124;28;103196;-60
2022/04/14 03:36:27;;;;;;;12.80;7.60;;;;;;;19.87;26.53;95445.56;6149644;28;103389;-62
2022/04/14 03:39:28;;;;;;;7.63;6.90;;;;;;;19.76;26.40;95437.97;6170022;28;103615;-62
2022/04/14 03:42:30;;;;;;;7.67;6.97;;;;;;;19.73;26.47;95432.16;6164179;28;103985;-61
2022/04/14 03:45:32;;;;;;;7.33;6.30;;;;;;;19.77;26.60;95435.03;6164468;28;103146;-64
2022/04/14 03:48:33;;;;;;;6.00;5.13;;;;;;;20.17;26.68;95444.44;6143627;28;103110;-63
2022/04/14 03:51:35;;;;;;;5.63;5.13;;;;;;;20.38;27.41;95454.88;6139760;28;104226;-64
2022/04/14 03:54:37;;;;;;;6.30;5.70;;;;;;;20.48;27.23;95460.81;6163540;28;103404;-63
2022/04/14 03:57:39;;;;;;;8.33;5.83;;;;;;;20.50;27.06;95463.19;6162841;28;103295;-58
2022/04/14 04:00:42;;;;;;;7.70;6.00;;;;;;;20.54;26.97;95453.59;6163109;28;103179;-63
2022/04/14 04:03:43;;;;;;;7.40;6.23;;;;;;;20.53;27.81;95450.16;6165617;28;103725;-63
2022/04/14 04:06:45;;;;;;;8.07;5.90;;;;;;;20.70;31.41;95459.53;6158221;28;103179;-64
2022/04/14 04:09:47;;;;;;;8.77;6.20;;;;;;;20.79;31.67;95461.22;6151522;28;103744;-63
2022/04/14 04:12:49;;;;;;;11.80;6.40;;;;;;;20.85;31.10;95457.44;6163194;28;103277;-64
2022/04/14 04:15:51;;;;;;;14.43;5.97;;;;;;;20.97;31.32;95462.31;6161205;28;103251;-63
2022/04/14 04:18:53;;;;;;;8.13;5.50;;;;;;;21.10;30.92;95452.84;6157944;28;103228;-64
2022/04/14 04:21:55;;;;;;;9.03;8.03;;;;;;;21.21;31.01;95454.28;6148585;28;105831;-62
2022/04/14 04:24:58;;;;;;;15.70;8.80;;;;;;;21.12;29.74;95458.69;6161466;28;103620;-59
2022/04/14 04:27:59;;;;;;;9.83;8.80;;;;;;;20.94;28.99;95462.91;6160876;28;103017;-60
2022/04/14 04:31:01;;;;;;;10.53;9.43;;;;;;;20.82;29.63;95470.50;6162541;28;103077;-63
2022/04/14 04:34:03;;;;;;;9.40;8.50;;;;;;;20.77;29.40;95479.34;6153361;28;104410;-60
2022/04/14 04:37:05;;;;;;;12.67;9.70;;;;;;;20.72;29.19;95483.94;6163044;28;103045;-62
2022/04/14 04:40:08;;;;;;;13.27;8.90;;;;;;;20.66;29.33;95488.53;6161414;28;104040;-62
2022/04/14 04:43:10;;;;;;;8.80;8.00;;;;;;;20.68;29.17;95491.72;6157632;28;103297;-55
2022/04/14 04:46:13;;;;;;;11.90;9.70;;;;;;;20.64;29.00;95496.00;6153714;28;104913;-60
2022/04/14 04:49:14;;;;;;;9.47;8.33;;;;;;;20.64;28.93;95506.63;6160736;28;103020;-60
2022/04/14 04:52:16;;;;;;;8.97;8.03;;;;;;;20.60;29.01;95506.41;6160882;28;103941;-62
2022/04/14 04:55:18;;;;;;;8.50;7.70;;;;;;;20.63;29.14;95516.47;6150922;28;104315;-61
2022/04/14 04:58:20;;;;;;;9.30;8.40;;;;;;;20.64;28.83;95517.28;6162264;28;103960;-63
2022/04/14 05:01:21;;;;;;;9.00;8.10;;;;;;;20.58;29.17;95519.22;6162388;28;103120;-61
2022/04/14 05:04:23;;;;;;;11.60;7.90;;;;;;;20.59;28.76;95522.66;6161978;28;103338;-62
2022/04/14 05:07:25;;;;;;;9.30;7.73;;;;;;;20.57;28.87;95527.47;6151836;28;104326;-61
2022/04/14 05:10:27;;;;;;;8.37;7.33;;;;;;;20.60;28.75;95526.91;6162161;28;103141;-62
2022/04/14 05:13:30;;;;;;;8.00;7.30;;;;;;;20.56;28.65;95532.00;6161823;28;103949;-63
2022/04/14 05:16:32;;;;;;;9.40;8.10;;;;;;;20.56;28.39;95537.31;6160732;28;102957;-62
2022/04/14 05:19:34;;;;;;;8.00;7.27;;;;;;;20.59;28.57;95530.63;6153532;28;103838;-62
2022/04/14 05:22:36;;;;;;;8.90;7.70;;;;;;;20.58;28.55;95534.38;6161468;28;102992;-63
2022/04/14 05:25:41;;;;;;;8.97;7.90;;;;;;;20.60;28.45;95529.56;6162404;28;103164;-59
2022/04/14 05:28:43;;;;;;;7.40;6.70;;;;;;;20.56;28.42;95537.31;6158181;28;103209;-60
2022/04/14 05:31:45;;;;;;;8.10;7.33;;;;;;;20.57;28.67;95540.75;6155943;28;104226;-62
2022/04/14 05:34:46;;;;;;;9.10;7.37;;;;;;;20.58;28.50;95539.69;6161724;28;103043;-57
2022/04/14 05:37:48;;;;;;;8.37;7.57;;;;;;;20.58;28.37;95542.34;6161979;28;104142;-62
2022/04/14 05:40:51;;;;;;;7.90;7.20;;;;;;;20.58;28.35;95542.34;6151633;28;103029;-63
2022/04/14 05:43:52;;;;;;;7.70;6.80;;;;;;;20.63;28.23;95550.25;6161774;28;103027;-62
2022/04/14 05:46:54;;;;;;;7.83;7.03;;;;;;;20.76;28.32;95549.56;6161408;28;103398;-63
2022/04/14 05:49:56;;;;;;;7.90;6.80;;;;;;;20.86;27.94;95546.81;6160375;28;103068;-62
2022/04/14 05:52:58;;;;;;;7.10;6.50;;;;;;;20.93;27.75;95551.75;6150626;28;103442;-61
2022/04/14 05:56:00;;;;;;;6.87;6.17;;;;;;;21.04;27.91;95552.44;6161555;28;103031;-62
2022/04/14 05:59:02;;;;;;;6.83;6.23;;;;;;;21.13;27.74;95556.84;6162139;28;103431;-61
2022/04/14 06:02:04;;;;;;;6.87;6.27;;;;;;;21.25;27.59;95553.78;6161486;28;104002;-60
2022/04/14 06:05:06;;;;;;;6.97;6.40;;;;;;;21.36;27.50;95557.88;6151454;28;103951;-63
2022/04/14 06:08:08;;;;;;;6.47;5.87;;;;;;;21.44;27.67;95562.53;6161278;28;103146;-62
2022/04/14 06:11:10;;;;;;;6.60;6.10;;;;;;;21.52;27.45;95548.59;6162012;28;103398;-61
2022/04/14 06:14:12;;;;;;;7.00;6.40;;;;;;;21.62;27.34;95558.28;6155972;28;103072;-60
2022/04/14 06:17:14;;;;;;;6.80;6.20;;;;;;;21.70;27.25;95559.53;6156284;28;102971;-60
2022/04/14 06:20:16;;;;;;;6.47;5.87;;;;;;;21.77;27.13;95562.59;6161612;28;102862;-60
2022/04/14 06:23:18;;;;;;;6.20;5.70;;;;;;;21.82;27.15;95559.88;6161354;28;104126;-59
2022/04/14 06:26:19;;;;;;;5.83;5.33;;;;;;;21.90;27.10;95558.44;6151522;28;103389;-62
2022/04/14 06:29:21;;;;;;;6.57;5.97;;;;;;;21.96;27.05;95554.59;6160967;28;104054;-61
2022/04/14 06:32:23;;;;;;;6.00;5.60;;;;;;;22.02;27.06;95561.44;6161137;28;102833;-61
2022/04/14 06:35:28;;;;;;;6.53;6.03;;;;;;;22.15;26.59;95560.66;6163567;28;103070;-62
2022/04/14 06:38:30;;;;;;;6.30;5.80;;;;;;;22.24;26.57;95560.78;6154155;28;103247;-61
2022/04/14 06:41:32;;;;;;;6.17;5.67;;;;;;;22.30;27.16;95563.06;6165793;28;103244;-63
2022/04/14 06:44:34;;;;;;;6.43;5.87;;;;;;;22.38;27.14;95557.06;6179226;28;103206;-63
2022/04/14 06:47:35;;;;;;;6.40;5.80;;;;;;;22.45;27.12;95567.31;6164932;28;102940;-61
2022/04/14 06:50:37;;;;;;;6.23;5.73;;;;;;;22.44;27.01;95560.41;6155266;28;104193;-62
2022/04/14 06:53:43;;;;;;;5.43;4.93;;;;;;;22.46;26.88;95574.25;6164928;28;102827;-62
2022/04/14 06:56:45;;;;;;;6.23;5.63;;;;;;;22.48;26.78;95564.06;6165294;28;102958;-63
2022/04/14 06:59:46;;;;;;;7.13;6.53;;;;;;;22.53;26.74;95563.19;6159816;28;103041;-63
2022/04/14 07:02:50;;;;;;;5.87;5.40;;;;;;;22.57;26.79;95572.22;6160004;28;103686;-62
2022/04/14 07:05:56;;;;;;;6.47;5.83;;;;;;;22.61;26.96;95576.66;6164345;28;103167;-59
2022/04/14 07:08:58;;;;;;;5.87;5.37;;;;;;;22.65;26.67;95577.63;6165033;28;104386;-63
2022/04/14 07:12:01;;;;;;;6.30;5.70;;;;;;;22.68;26.39;95579.75;6153995;28;103185;-61
2022/04/14 07:15:03;;;;;;;6.00;5.50;;;;;;;22.70;26.47;95582.09;6163814;28;103341;-61
2022/04/14 07:18:05;;;;;;;5.80;5.30;;;;;;;22.76;26.48;95575.56;6164693;28;104344;-62
2022/04/14 07:21:07;;;;;;;5.50;5.10;;;;;;;22.77;26.48;95579.81;6164044;28;103369;-61
2022/04/14 07:24:09;;;;;;;6.20;5.60;;;;;;;22.78;26.47;95572.63;6153267;28;102996;-60
2022/04/14 07:27:10;;;;;;;5.53;5.03;;;;;;;22.82;26.69;95578.94;6164331;28;104281;-62
2022/04/14 07:30:12;;;;;;;6.33;5.80;;;;;;;22.85;26.25;95571.16;6163535;28;102906;-62
2022/04/14 07:33:14;;;;;;;5.30;4.90;;;;;;;22.86;26.35;95564.72;6164094;28;103255;-60
2022/04/14 07:36:19;;;;;;;5.90;5.40;;;;;;;22.89;26.34;95564.13;6152775;28;104052;-61
2022/04/14 07:39:40;;;;;;;6.30;5.80;;;;;;;22.90;26.65;95559.56;6163760;28;102789;-61
2022/04/14 07:42:47;;;;;;;5.70;5.20;;;;;;;22.94;26.29;95560.53;6164595;28;103356;-60
2022/04/14 07:45:50;;;;;;;6.00;5.50;;;;;;;22.94;26.19;95549.88;6153119;28;104253;-62
2022/04/14 07:48:51;;;;;;;6.23;5.73;;;;;;;23.00;26.49;95551.34;6164063;28;103466;-62
2022/04/14 07:51:55;;;;;;;7.00;5.60;;;;;;;23.00;26.35;95544.13;6162878;28;103229;-62
2022/04/14 07:54:57;;;;;;;5.93;5.43;;;;;;;23.04;26.20;95554.22;6163556;28;103149;-61
2022/04/14 07:58:07;;;;;;;6.13;5.63;;;;;;;23.05;26.72;95545.13;6152458;28;104232;-63
2022/04/14 08:01:09;;;;;;;5.83;5.33;;;;;;;23.06;26.57;95539.47;6163915;28;104010;-62
2022/04/14 08:04:11;;;;;;;6.77;6.17;;;;;;;23.07;26.29;95559.75;6163726;28;103088;-62
2022/04/14 08:07:13;;;;;;;7.07;6.37;;;;;;;23.10;26.67;95542.34;6163299;28;104093;-63
2022/04/14 08:10:19;;;;;;;6.50;6.00;;;;;;;23.11;26.38;95546.59;6152943;28;104642;-62
2022/04/14 08:13:21;;;;;;;5.77;5.30;;;;;;;23.12;26.24;95546.28;6163212;28;104120;-61
2022/04/14 08:16:23;;;;;;;6.13;5.63;;;;;;;23.13;26.31;95545.19;6163394;28;102980;-62
2022/04/14 08:19:24;;;;;;;6.57;6.07;;;;;;;23.15;26.28;95547.56;6156665;28;103173;-61
2022/04/14 08:22:26;;;;;;;5.50;5.10;;;;;;;23.15;26.63;95548.34;6158068;28;103749;-60
2022/04/14 08:25:33;;;;;;;6.33;5.83;;;;;;;23.16;26.60;95543.78;6163261;28;104062;-61
2022/04/14 08:28:40;;;;;;;5.77;5.27;;;;;;;23.16;26.63;95541.91;6162903;28;103258;-63
2022/04/14 08:31:42;;;;;;;6.37;5.80;;;;;;;23.16;26.65;95541.91;6153472;28;103975;-62
2022/04/14 08:34:45;;;;;;;6.50;6.00;;;;;;;23.17;26.46;95540.81;6177917;28;103269;-59
2022/04/14 08:37:49;;;;;;;6.20;5.70;;;;;;;23.18;26.42;95545.06;6162900;28;103118;-62
2022/04/14 08:40:58;;;;;;;6.13;5.63;;;;;;;23.18;26.38;95545.06;6162023;28;104034;-63
2022/04/14 08:44:20;;;;;;;6.13;5.63;;;;;;;23.18;26.44;95550.41;6152489;28;103051;-62
2022/04/14 08:47:24;;;;;;;6.50;6.00;;;;;;;23.19;26.64;95546.69;6162790;28;104024;-60
2022/04/14 08:50:26;;;;;;;6.87;6.23;;;;;;;23.20;26.70;95539.47;6162681;28;104120;-63
2022/04/14 08:53:27;;;;;;;6.80;6.20;;;;;;;23.20;26.33;95534.13;6157356;28;103057;-64
2022/04/14 08:56:30;;;;;;;6.40;5.90;;;;;;;23.20;26.82;95542.91;6155434;28;102893;-62
2022/04/14 08:59:33;;;;;;;7.00;6.40;;;;;;;23.20;26.78;95529.56;6162260;28;104268;-63
2022/04/14 09:02:35;;;;;;;6.90;6.33;;;;;;;23.19;26.79;95522.66;6162903;28;104000;-64
2022/04/14 09:05:38;;;;;;;6.90;6.40;;;;;;;23.18;26.86;95515.69;6152671;28;103963;-62
2022/04/14 09:08:40;;;;;;;6.67;6.17;;;;;;;23.20;26.38;95515.44;6162806;28;104151;-60
2022/04/14 09:11:41;;;;;;;6.90;6.40;;;;;;;23.19;26.78;95514.63;6162690;28;103408;-61
2022/04/14 09:14:44;;;;;;;7.13;6.53;;;;;;;23.20;26.67;95508.22;6162590;28;102956;-61
2022/04/14 09:17:46;;;;;;;6.10;5.60;;;;;;;23.18;26.84;95505.03;6151529;28;104634;-62
2022/04/14 09:20:50;;;;;;;7.57;6.87;;;;;;;23.18;26.79;95501.56;6162249;28;104168;-60
2022/04/14 09:23:52;;;;;;;6.80;6.30;;;;;;;23.18;26.81;95496.22;6161932;28;103001;-63
2022/04/14 09:26:54;;;;;;;7.20;6.60;;;;;;;23.17;26.54;95506.13;6162169;28;103136;-63
2022/04/14 09:30:01;;;;;;;7.27;6.67;;;;;;;23.17;26.87;95506.13;6151718;28;103895;-65
2022/04/14 09:33:03;;;;;;;7.53;6.93;;;;;;;23.16;26.68;95499.19;6161906;28;103531;-63
2022/04/14 09:36:27;;;;;;;7.87;7.27;;;;;;;23.16;26.75;95493.06;6162173;28;103159;-62
2022/04/14 09:39:28;;;;;;;7.13;6.53;;;;;;;23.16;26.54;95491.19;6151562;28;103962;-63
2022/04/14 09:42:32;;;;;;;7.77;7.07;;;;;;;23.15;26.42;95488.81;6161440;28;103090;-62
2022/04/14 09:45:34;;;;;;;7.10;6.50;;;;;;;23.14;27.13;95485.38;6162902;28;104130;-63
2022/04/14 09:49:07;;;;;;;7.23;6.67;;;;;;;23.13;26.49;95486.47;6162244;28;104034;-62
2022/04/14 09:52:09;;;;;;;7.70;7.00;;;;;;;23.09;27.10;95480.16;6151441;28;103309;-62
2022/04/14 09:55:12;;;;;;;7.70;7.00;;;;;;;23.11;27.03;95480.63;6161960;28;104256;-62
2022/04/14 09:58:17;;;;;;;7.40;6.80;;;;;;;23.10;26.97;95473.72;6161265;28;102999;-62
2022/04/14 10:01:19;;;;;;;7.67;7.07;;;;;;;23.07;26.97;95468.97;6157545;28;103768;-55
2022/04/14 10:04:33;;;;;;;8.10;7.40;;;;;;;23.07;26.60;95468.97;6155696;28;104004;-61
2022/04/14 10:07:34;;;;;;;7.57;6.97;;;;;;;23.07;26.74;95466.31;6161558;28;103954;-62
2022/04/14 10:10:38;;;;;;;7.20;6.60;;;;;;;23.06;26.88;95467.41;6164233;28;102990;-61
2022/04/14 10:13:40;;;;;;;8.13;7.50;;;;;;;23.04;26.73;95455.47;6155065;28;103505;-64
2022/04/14 10:16:42;;;;;;;8.50;7.80;;;;;;;23.02;26.92;95455.75;6166558;28;104041;-61
2022/04/14 10:19:44;;;;;;;8.90;8.20;;;;;;;23.01;27.11;95459.50;6165679;28;102990;-61
2022/04/14 10:22:47;;;;;;;8.13;7.53;;;;;;;23.00;26.94;95452.56;6165991;28;102908;-62
2022/04/14 10:25:51;;;;;;;8.30;7.70;;;;;;;22.98;26.83;95450.22;6154394;28;103111;-61
2022/04/14 10:28:52;;;;;;;8.27;7.67;;;;;;;22.96;27.25;95447.06;6165862;28;103248;-60
2022/04/14 10:31:55;;;;;;;8.80;8.10;;;;;;;22.95;27.30;95450.81;6149380;28;103081;-63
2022/04/14 10:34:59;;;;;;;8.07;7.37;;;;;;;22.94;27.15;95446.56;6140871;28;102971;-63
2022/04/14 10:38:20;;;;;;;7.90;7.30;;;;;;;22.93;27.04;95452.22;6129616;28;105858;-63
2022/04/14 10:41:27;;;;;;;8.43;7.80;;;;;;;22.90;26.88;95442.16;6140898;28;102894;-61
2022/04/14 10:44:47;;;;;;;8.37;7.70;;;;;;;22.86;27.06;95446.50;6156122;28;102981;-62
2022/04/14 10:47:59;;;;;;;8.27;7.67;;;;;;;22.86;27.03;95441.19;6129788;28;103086;-62
2022/04/14 10:51:32;;;;;;;8.70;7.90;;;;;;;22.84;27.49;95443.31;6140715;28;103101;-63
2022/04/14 10:55:00;;;;;;;8.30;7.63;;;;;;;22.83;27.08;95447.88;6139751;28;102966;-63
2022/04/14 10:58:02;;;;;;;8.67;7.97;;;;;;;22.80;27.61;95443.16;6137246;28;103992;-61
2022/04/14 11:01:04;;;;;;;8.63;7.93;;;;;;;22.77;27.50;95442.97;6133209;28;103892;-60
2022/04/14 11:04:40;;;;;;;8.60;7.90;;;;;;;22.76;27.41;95430.72;6140193;28;103221;-62
2022/04/14 11:07:42;;;;;;;9.27;8.57;;;;;;;22.76;27.42;95433.38;6140131;28;103333;-63
2022/04/14 11:11:14;;;;;;;8.87;8.17;;;;;;;22.73;27.15;95432.09;6128292;28;104162;-63
2022/04/14 11:14:23;;;;;;;8.43;7.73;;;;;;;22.72;27.50;95429.75;6139078;28;103013;-62
2022/04/14 11:17:33;;;;;;;8.80;8.20;;;;;;;22.68;27.69;95427.69;6140544;28;104259;-59
2022/04/14 11:20:36;;;;;;;8.93;8.33;;;;;;;22.67;27.34;95428.72;6140004;28;103164;-60
2022/04/14 11:23:40;;;;;;;9.00;8.30;;;;;;;22.66;27.28;95423.69;6129432;28;103246;-62
2022/04/14 11:26:42;;;;;;;9.10;8.40;;;;;;;22.64;27.42;95425.88;6139921;28;103920;-63
2022/04/14 11:29:46;;;;;;;8.97;8.27;;;;;;;22.62;27.57;95425.41;6140017;28;104010;-62
2022/04/14 11:32:48;;;;;;;8.83;8.13;;;;;;;22.61;27.43;95421.16;6154748;28;103445;-62
2022/04/14 11:36:10;;;;;;;9.50;8.80;;;;;;;22.57;27.66;95418.31;6163409;28;103013;-63
2022/04/14 11:39:22;;;;;;;8.93;8.23;;;;;;;22.57;27.59;95428.19;6163789;28;103284;-63
2022/04/14 11:42:28;;;;;;;8.90;8.20;;;;;;;22.53;27.63;95422.63;6163651;28;103164;-63
2022/04/14 11:45:31;;;;;;;8.63;8.03;;;;;;;22.52;27.54;95421.06;6152958;28;103138;-62
2022/04/14 11:48:33;;;;;;;9.67;8.97;;;;;;;22.50;27.57;95423.19;6163734;28;103979;-63
2022/04/14 11:51:41;;;;;;;8.93;8.23;;;;;;;22.49;27.97;95416.28;6163579;28;103183;-63
2022/04/14 11:54:46;;;;;;;9.23;8.53;;;;;;;22.47;27.38;95407.81;6163337;28;103050;-58
2022/04/14 11:57:47;;;;;;;9.17;8.47;;;;;;;22.45;27.42;95406.53;6155793;28;102997;-62
2022/04/14 12:00:50;;;;;;;9.07;8.37;;;;;;;22.44;27.77;95405.75;6163339;28;103079;-62
2022/04/14 12:03:53;;;;;;;9.13;8.43;;;;;;;22.43;27.70;95409.50;6163678;28;104530;-63
2022/04/14 12:06:56;;;;;;;8.90;8.20;;;;;;;22.43;27.79;95401.50;6153475;28;103221;-62
2022/04/14 12:09:59;;;;;;;9.10;8.30;;;;;;;22.40;27.58;95396.78;6162218;28;103432;-62
2022/04/14 12:13:09;;;;;;;9.30;8.50;;;;;;;22.40;27.95;95402.09;6163193;28;104209;-63
2022/04/14 12:16:11;;;;;;;9.10;8.40;;;;;;;22.39;27.75;95395.97;6163207;28;103268;-61
2022/04/14 12:19:13;;;;;;;9.87;9.07;;;;;;;22.40;27.62;95396.78;6153173;28;104072;-62
2022/04/14 12:22:15;;;;;;;10.80;9.90;;;;;;;22.38;27.71;95389.06;6163468;28;102980;-63
2022/04/14 12:25:17;;;;;;;8.93;8.20;;;;;;;22.39;27.65;95384.53;6163137;28;103900;-62
2022/04/14 12:28:18;;;;;;;9.80;9.00;;;;;;;22.36;27.73;95372.59;6163493;28;103026;-59
2022/04/14 12:31:20;;;;;;;9.20;8.50;;;;;;;22.36;28.12;95371.78;6151194;28;103268;-62
2022/04/14 12:34:23;;;;;;;9.30;8.60;;;;;;;22.35;27.81;95368.34;6162504;28;103958;-62
2022/04/14 12:37:40;;;;;;;8.90;8.20;;;;;;;22.35;27.81;95364.88;6162821;28;103101;-62
2022/04/14 12:40:59;;;;;;;10.00;9.20;;;;;;;22.35;27.99;95359.56;6157318;28;103065;-63
2022/04/14 12:44:01;;;;;;;8.70;8.10;;;;;;;22.36;27.58;95353.13;6162517;28;102959;-63
2022/04/14 12:47:03;;;;;;;10.10;9.20;;;;;;;22.33;27.88;95351.81;6162799;28;102975;-61
2022/04/14 12:50:06;;;;;;;9.20;8.50;;;;;;;22.32;28.17;95349.47;6162521;28;102970;-63
2022/04/14 12:53:10;;;;;;;9.43;8.63;;;;;;;22.30;27.62;95343.66;6150379;28;104417;-62
2022/04/14 12:56:15;;;;;;;9.63;8.93;;;;;;;22.33;28.17;95351.03;6163966;28;104277;-63
2022/04/14 12:59:20;;;;;;;8.73;8.13;;;;;;;22.32;28.12;95349.47;6179280;28;104995;-61
2022/04/14 13:02:23;;;;;;;12.73;11.67;;;;;;;22.30;28.01;95351.63;6176962;28;103268;-61
2022/04/14 13:05:29;;;;;;;15.17;13.70;;;;;;;22.20;26.77;95346.53;6175772;28;103285;-61
2022/04/14 13:08:34;;;;;;;17.13;15.50;;;;;;;22.20;27.05;95343.88;6187215;28;104195;-58
2022/04/14 13:11:41;;;;;;;8.73;7.30;;;;;;;22.00;25.58;95340.50;6186192;28;103003;-62
2022/04/14 13:14:47;;;;;;;11.43;5.20;;;;;;;21.63;24.11;95330.81;6143216;28;103627;-62
2022/04/14 13:18:05;;;;;;;5.43;4.90;;;;;;;21.42;23.92;95330.41;6159054;28;104050;-61
2022/04/14 13:21:08;;;;;;;5.63;4.13;;;;;;;21.34;23.89;95322.31;6162147;28;103997;-62
2022/04/14 13:24:10;;;;;;;6.57;4.87;;;;;;;21.67;24.78;95336.34;6162071;28;103145;-61
2022/04/14 13:27:12;;;;;;;4.60;4.20;;;;;;;21.88;25.50;95332.25;6151586;28;104373;-60
2022/04/14 13:30:14;;;;;;;6.03;4.90;;;;;;;22.03;25.17;95329.28;6162417;28;103242;-62
2022/04/14 13:33:18;;;;;;;4.90;4.50;;;;;;;22.11;24.96;95331.25;6161237;28;104212;-62
2022/04/14 13:36:19;;;;;;;4.53;4.00;;;;;;;22.16;24.99;95321.56;6162311;28;103323;-62
2022/04/14 13:39:21;;;;;;;4.60;4.20;;;;;;;22.21;25.39;95322.25;6151152;28;104168;-61
2022/04/14 13:42:23;;;;;;;4.23;3.83;;;;;;;22.26;25.29;95318.69;6161752;28;102986;-62
2022/04/14 13:45:25;;;;;;;3.90;3.60;;;;;;;22.27;25.07;95322.91;6166049;28;103318;-62
2022/04/14 13:48:27;;;;;;;5.10;4.07;;;;;;;22.27;25.33;95320.25;6161405;28;103025;-61
2022/04/14 13:51:29;;;;;;;4.60;4.20;;;;;;;22.27;25.57;95317.59;6160570;28;103193;-62
2022/04/14 13:54:31;;;;;;;5.10;4.70;;;;;;;22.26;26.61;95321.34;6181483;28;103031;-61
2022/04/14 13:57:34;;;;;;;5.90;4.77;;;;;;;22.26;26.59;95316.81;6165975;28;103243;-61
2022/04/14 14:00:36;;;;;;;5.87;5.00;;;;;;;22.28;26.44;95321.84;6155480;28;103271;-61
2022/04/14 14:03:38;;;;;;;8.47;5.63;;;;;;;22.25;26.52;95317.88;6165537;28;105768;-61
2022/04/14 14:06:40;;;;;;;5.80;5.20;;;;;;;22.29;27.13;95318.84;6168378;28;103402;-61
2022/04/14 14:09:41;;;;;;;7.03;6.33;;;;;;;22.31;26.76;95321.22;6167863;28;103025;-61
2022/04/14 14:12:49;;;;;;;9.60;5.80;;;;;;;22.33;27.28;95311.03;6159795;28;103976;-58